sensor_id;sensor_type;location;lat;lon;timestamp;pressure;altitude;pressure_sealevel;temperature;humidity
11682;BME280;5897;42.640;23.310;2023-02-26T00:01:18;92694.84;;;14.36;42.10
11682;BME280;5897;42.640;23.310;2023-02-26T00:03:48;92679.81;;;14.41;41.93
11682;BME280;5897;42.640;23.310;2023-02-26T00:06:15;92715.84;;;14.36;42.14
11682;BME280;5897;42.640;23.310;2023-02-26T00:08:41;92724.69;;;14.31;42.70
11682;BME280;5897;42.640;23.310;2023-02-26T00:11:09;92680.44;;;14.25;41.23
11682;BME280;5897;42.640;23.310;2023-02-26T00:13:37;92686.00;;;14.41;41.87
11682;BME280;5897;42.640;23.310;2023-02-26T00:16:13;92711.25;;;14.47;41.86
11682;BME280;5897;42.640;23.310;2023-02-26T00:18:44;92709.66;;;14.35;42.85
11682;BME280;5897;42.640;23.310;2023-02-26T00:21:15;92707.69;;;14.16;41.83
11682;BME280;5897;42.640;23.310;2023-02-26T00:23:43;92702.00;;;14.34;42.50
11682;BME280;5897;42.640;23.310;2023-02-26T00:26:10;92725.72;;;14.33;41.27
11682;BME280;5897;42.640;23.310;2023-02-26T00:28:37;92709.09;;;14.26;41.93
11682;BME280;5897;42.640;23.310;2023-02-26T00:31:05;92685.91;;;14.30;42.36
11682;BME280;5897;42.640;23.310;2023-02-26T00:33:32;92679.72;;;14.30;42.64
11682;BME280;5897;42.640;23.310;2023-02-26T00:36:07;92654.25;;;14.02;41.33
11682;BME280;5897;42.640;23.310;2023-02-26T00:38:39;92699.09;;;14.17;41.67
11682;BME280;5897;42.640;23.310;2023-02-26T00:41:09;92681.66;;;14.04;42.55
11682;BME280;5897;42.640;23.310;2023-02-26T00:43:36;92695.22;;;14.04;41.93
11682;BME280;5897;42.640;23.310;2023-02-26T00:46:14;92691.03;;;14.03;42.23
11682;BME280;5897;42.640;23.310;2023-02-26T00:48:52;92669.88;;;14.12;40.99
11682;BME280;5897;42.640;23.310;2023-02-26T00:51:30;92634.13;;;14.14;40.71
11682;BME280;5897;42.640;23.310;2023-02-26T00:54:02;92684.63;;;14.06;41.60
11682;BME280;5897;42.640;23.310;2023-02-26T00:56:33;92684.19;;;14.13;40.08
11682;BME280;5897;42.640;23.310;2023-02-26T00:59:00;92645.03;;;14.19;39.54
11682;BME280;5897;42.640;23.310;2023-02-26T01:01:27;92672.00;;;14.23;40.41
11682;BME280;5897;42.640;23.310;2023-02-26T01:03:54;92678.28;;;14.14;39.81
11682;BME280;5897;42.640;23.310;2023-02-26T01:06:26;92625.09;;;14.22;39.25
11682;BME280;5897;42.640;23.310;2023-02-26T01:08:58;92681.44;;;14.27;39.55
11682;BME280;5897;42.640;23.310;2023-02-26T01:11:28;92695.50;;;14.26;39.75
11682;BME280;5897;42.640;23.310;2023-02-26T01:13:55;92648.41;;;14.34;40.08
11682;BME280;5897;42.640;23.310;2023-02-26T01:16:27;92656.50;;;14.29;39.95
11682;BME280;5897;42.640;23.310;2023-02-26T01:18:58;92645.91;;;14.31;39.48
11682;BME280;5897;42.640;23.310;2023-02-26T01:21:33;92647.97;;;14.41;39.71
11682;BME280;5897;42.640;23.310;2023-02-26T01:24:05;92642.44;;;14.30;40.26
11682;BME280;5897;42.640;23.310;2023-02-26T01:26:33;92661.53;;;14.36;40.34
11682;BME280;5897;42.640;23.310;2023-02-26T01:29:00;92669.22;;;14.17;40.48
11682;BME280;5897;42.640;23.310;2023-02-26T01:31:37;92645.25;;;14.16;40.46
11682;BME280;5897;42.640;23.310;2023-02-26T01:34:14;92593.75;;;14.27;40.23
11682;BME280;5897;42.640;23.310;2023-02-26T01:36:48;92605.97;;;14.17;40.63
11682;BME280;5897;42.640;23.310;2023-02-26T01:39:22;92641.03;;;14.15;40.92
11682;BME280;5897;42.640;23.310;2023-02-26T01:41:53;92592.28;;;14.26;40.17
11682;BME280;5897;42.640;23.310;2023-02-26T01:44:24;92598.41;;;14.21;40.45
11682;BME280;5897;42.640;23.310;2023-02-26T01:47:13;92633.56;;;14.10;40.44
11682;BME280;5897;42.640;23.310;2023-02-26T01:49:42;92603.16;;;14.06;39.78
11682;BME280;5897;42.640;23.310;2023-02-26T01:55:23;92572.78;;;14.02;39.44
11682;BME280;5897;42.640;23.310;2023-02-26T01:57:54;92601.13;;;14.01;39.31
11682;BME280;5897;42.640;23.310;2023-02-26T02:00:22;92567.34;;;14.02;39.22
11682;BME280;5897;42.640;23.310;2023-02-26T02:02:49;92569.97;;;13.91;39.57
11682;BME280;5897;42.640;23.310;2023-02-26T02:05:21;92581.88;;;13.99;39.25
11682;BME280;5897;42.640;23.310;2023-02-26T02:07:50;92554.38;;;13.86;38.56
11682;BME280;5897;42.640;23.310;2023-02-26T02:10:18;92539.69;;;14.03;38.61
11682;BME280;5897;42.640;23.310;2023-02-26T02:12:50;92566.53;;;13.96;38.37
11682;BME280;5897;42.640;23.310;2023-02-26T02:15:25;92574.97;;;13.98;38.38
11682;BME280;5897;42.640;23.310;2023-02-26T02:18:01;92554.63;;;13.88;38.04
11682;BME280;5897;42.640;23.310;2023-02-26T02:21:03;92532.53;;;14.00;37.74
11682;BME280;5897;42.640;23.310;2023-02-26T02:23:38;92557.97;;;14.03;37.46
11682;BME280;5897;42.640;23.310;2023-02-26T02:32:17;92549.06;;;14.02;37.37
11682;BME280;5897;42.640;23.310;2023-02-26T02:34:50;92534.78;;;14.02;37.40
11682;BME280;5897;42.640;23.310;2023-02-26T02:37:22;92578.47;;;14.04;37.53
11682;BME280;5897;42.640;23.310;2023-02-26T02:39:54;92574.28;;;14.03;36.75
11682;BME280;5897;42.640;23.310;2023-02-26T02:42:27;92559.25;;;14.07;37.25
11682;BME280;5897;42.640;23.310;2023-02-26T02:44:58;92558.66;;;13.98;38.03
11682;BME280;5897;42.640;23.310;2023-02-26T02:47:30;92615.91;;;13.94;38.00
11682;BME280;5897;42.640;23.310;2023-02-26T02:50:07;92533.00;;;13.99;37.72
11682;BME280;5897;42.640;23.310;2023-02-26T02:52:38;92586.41;;;13.82;37.98
11682;BME280;5897;42.640;23.310;2023-02-26T02:55:11;92567.75;;;13.95;37.63
11682;BME280;5897;42.640;23.310;2023-02-26T02:57:42;92595.91;;;13.97;37.65
11682;BME280;5897;42.640;23.310;2023-02-26T03:00:13;92567.75;;;13.95;37.53
11682;BME280;5897;42.640;23.310;2023-02-26T03:02:48;92603.13;;;14.00;37.46
11682;BME280;5897;42.640;23.310;2023-02-26T03:05:16;92585.03;;;13.92;37.26
11682;BME280;5897;42.640;23.310;2023-02-26T03:07:47;92573.19;;;13.95;37.21
11682;BME280;5897;42.640;23.310;2023-02-26T03:10:15;92573.19;;;13.95;37.04
11682;BME280;5897;42.640;23.310;2023-02-26T03:12:42;92575.38;;;13.91;37.19
11682;BME280;5897;42.640;23.310;2023-02-26T03:15:10;92578.91;;;13.97;36.87
11682;BME280;5897;42.640;23.310;2023-02-26T03:17:45;92574.69;;;13.96;36.60
11682;BME280;5897;42.640;23.310;2023-02-26T03:20:20;92584.03;;;13.95;36.71
11682;BME280;5897;42.640;23.310;2023-02-26T03:22:56;92589.75;;;13.97;36.84
11682;BME280;5897;42.640;23.310;2023-02-26T03:25:26;92563.09;;;13.95;36.93
11682;BME280;5897;42.640;23.310;2023-02-26T03:27:59;92588.69;;;13.89;36.95
11682;BME280;5897;42.640;23.310;2023-02-26T03:30:34;92618.41;;;13.98;36.75
11682;BME280;5897;42.640;23.310;2023-02-26T03:33:10;92594.91;;;13.95;36.56
11682;BME280;5897;42.640;23.310;2023-02-26T03:35:44;92591.72;;;13.96;36.73
11682;BME280;5897;42.640;23.310;2023-02-26T03:38:17;92574.50;;;13.99;36.67
11682;BME280;5897;42.640;23.310;2023-02-26T03:40:50;92597.69;;;14.00;36.93
11682;BME280;5897;42.640;23.310;2023-02-26T03:43:22;92569.31;;;14.01;36.57
11682;BME280;5897;42.640;23.310;2023-02-26T03:45:55;92583.84;;;13.98;36.87
11682;BME280;5897;42.640;23.310;2023-02-26T03:48:26;92564.63;;;14.02;37.20
11682;BME280;5897;42.640;23.310;2023-02-26T03:50:59;92571.06;;;14.04;37.45
11682;BME280;5897;42.640;23.310;2023-02-26T03:53:30;92591.97;;;13.98;36.58
11682;BME280;5897;42.640;23.310;2023-02-26T03:56:02;92562.97;;;14.10;36.32
11682;BME280;5897;42.640;23.310;2023-02-26T03:58:32;92586.88;;;14.06;36.95
11682;BME280;5897;42.640;23.310;2023-02-26T04:01:02;92607.91;;;14.11;36.18
11682;BME280;5897;42.640;23.310;2023-02-26T04:03:34;92582.00;;;14.15;36.61
11682;BME280;5897;42.640;23.310;2023-02-26T04:06:02;92542.63;;;14.00;36.94
11682;BME280;5897;42.640;23.310;2023-02-26T04:08:30;92561.09;;;13.96;37.06
11682;BME280;5897;42.640;23.310;2023-02-26T04:11:02;92561.09;;;13.96;37.61
11682;BME280;5897;42.640;23.310;2023-02-26T04:13:30;92550.75;;;13.94;37.52
11682;BME280;5897;42.640;23.310;2023-02-26T04:15:57;92538.44;;;13.99;36.05
11682;BME280;5897;42.640;23.310;2023-02-26T04:18:24;92537.28;;;14.05;36.32
11682;BME280;5897;42.640;23.310;2023-02-26T04:20:52;92564.34;;;14.00;36.67
11682;BME280;5897;42.640;23.310;2023-02-26T04:23:20;92557.44;;;13.99;36.78
11682;BME280;5897;42.640;23.310;2023-02-26T04:25:46;92569.78;;;14.00;37.12
11682;BME280;5897;42.640;23.310;2023-02-26T04:28:13;92553.69;;;13.91;37.00
11682;BME280;5897;42.640;23.310;2023-02-26T04:30:40;92522.59;;;13.92;36.96
11682;BME280;5897;42.640;23.310;2023-02-26T04:33:07;92570.22;;;13.93;36.56
11682;BME280;5897;42.640;23.310;2023-02-26T04:35:35;92489.72;;;13.90;36.70
11682;BME280;5897;42.640;23.310;2023-02-26T04:38:03;92531.69;;;13.89;36.55
11682;BME280;5897;42.640;23.310;2023-02-26T04:40:30;92532.69;;;13.91;36.77
11682;BME280;5897;42.640;23.310;2023-02-26T04:42:57;92527.22;;;13.86;36.01
11682;BME280;5897;42.640;23.310;2023-02-26T04:45:24;92592.47;;;13.97;35.73
11682;BME280;5897;42.640;23.310;2023-02-26T04:47:51;92525.13;;;14.01;35.53
11682;BME280;5897;42.640;23.310;2023-02-26T04:50:18;92534.50;;;14.00;35.39
11682;BME280;5897;42.640;23.310;2023-02-26T04:52:45;92532.56;;;14.06;35.47
11682;BME280;5897;42.640;23.310;2023-02-26T04:55:13;92542.63;;;14.00;35.44
11682;BME280;5897;42.640;23.310;2023-02-26T04:57:40;92516.03;;;14.04;35.47
11682;BME280;5897;42.640;23.310;2023-02-26T05:00:08;92517.50;;;14.05;35.12
11682;BME280;5897;42.640;23.310;2023-02-26T05:02:35;92461.97;;;14.06;34.65
11682;BME280;5897;42.640;23.310;2023-02-26T05:05:02;92557.31;;;14.13;34.45
11682;BME280;5897;42.640;23.310;2023-02-26T05:07:29;92467.22;;;14.15;34.57
11682;BME280;5897;42.640;23.310;2023-02-26T05:09:56;92454.38;;;14.15;34.29
11682;BME280;5897;42.640;23.310;2023-02-26T05:12:24;92463.09;;;14.19;34.41
11682;BME280;5897;42.640;23.310;2023-02-26T05:14:51;92471.69;;;14.18;34.66
11682;BME280;5897;42.640;23.310;2023-02-26T05:17:18;92493.41;;;14.18;34.58
11682;BME280;5897;42.640;23.310;2023-02-26T05:19:45;92472.19;;;14.16;34.51
11682;BME280;5897;42.640;23.310;2023-02-26T05:22:11;92486.97;;;14.15;34.77
11682;BME280;5897;42.640;23.310;2023-02-26T05:24:38;92487.06;;;14.21;34.59
11682;BME280;5897;42.640;23.310;2023-02-26T05:27:05;92492.25;;;14.24;34.75
11682;BME280;5897;42.640;23.310;2023-02-26T05:29:33;92493.22;;;14.21;34.72
11682;BME280;5897;42.640;23.310;2023-02-26T05:32:00;92493.50;;;14.23;34.48
11682;BME280;5897;42.640;23.310;2023-02-26T05:34:27;92535.47;;;14.22;34.79
11682;BME280;5897;42.640;23.310;2023-02-26T05:36:54;92500.44;;;14.30;34.76
11682;BME280;5897;42.640;23.310;2023-02-26T05:39:20;92463.88;;;14.25;34.68
11682;BME280;5897;42.640;23.310;2023-02-26T05:41:47;92485.66;;;14.31;34.33
11682;BME280;5897;42.640;23.310;2023-02-26T05:44:16;92460.22;;;14.34;34.28
11682;BME280;5897;42.640;23.310;2023-02-26T05:46:44;92520.72;;;14.34;34.09
11682;BME280;5897;42.640;23.310;2023-02-26T05:49:11;92445.69;;;14.37;34.18
11682;BME280;5897;42.640;23.310;2023-02-26T05:51:37;92471.34;;;14.36;34.26
11682;BME280;5897;42.640;23.310;2023-02-26T05:54:07;92474.06;;;14.36;34.20
11682;BME280;5897;42.640;23.310;2023-02-26T05:56:34;92544.44;;;14.34;34.12
11682;BME280;5897;42.640;23.310;2023-02-26T05:59:01;92461.44;;;14.33;34.13
11682;BME280;5897;42.640;23.310;2023-02-26T06:01:28;92472.56;;;14.35;33.90
11682;BME280;5897;42.640;23.310;2023-02-26T06:03:56;92445.75;;;14.48;33.54
11682;BME280;5897;42.640;23.310;2023-02-26T06:06:23;92458.81;;;14.49;33.55
11682;BME280;5897;42.640;23.310;2023-02-26T06:08:51;92480.31;;;14.53;33.48
11682;BME280;5897;42.640;23.310;2023-02-26T06:11:18;92475.16;;;14.55;33.64
11682;BME280;5897;42.640;23.310;2023-02-26T06:13:44;92452.72;;;14.60;33.36
11682;BME280;5897;42.640;23.310;2023-02-26T06:16:11;92516.97;;;14.63;33.14
11682;BME280;5897;42.640;23.310;2023-02-26T06:18:38;92512.84;;;14.78;32.15
11682;BME280;5897;42.640;23.310;2023-02-26T06:21:06;92471.63;;;14.85;32.41
11682;BME280;5897;42.640;23.310;2023-02-26T06:23:33;92567.00;;;14.82;32.60
11682;BME280;5897;42.640;23.310;2023-02-26T06:26:00;92462.19;;;14.81;32.56
11682;BME280;5897;42.640;23.310;2023-02-26T06:28:27;92468.91;;;14.91;32.47
11682;BME280;5897;42.640;23.310;2023-02-26T06:30:54;92544.09;;;14.94;32.48
11682;BME280;5897;42.640;23.310;2023-02-26T06:33:21;92484.25;;;14.94;32.52
11682;BME280;5897;42.640;23.310;2023-02-26T06:35:48;92606.66;;;14.99;32.29
11682;BME280;5897;42.640;23.310;2023-02-26T06:38:17;92529.97;;;14.95;32.10
11682;BME280;5897;42.640;23.310;2023-02-26T06:40:46;92447.44;;;14.93;32.23
11682;BME280;5897;42.640;23.310;2023-02-26T06:43:13;92485.50;;;14.93;32.02
11682;BME280;5897;42.640;23.310;2023-02-26T06:45:40;92469.44;;;14.95;32.28
11682;BME280;5897;42.640;23.310;2023-02-26T06:48:07;92454.66;;;15.07;31.46
11682;BME280;5897;42.640;23.310;2023-02-26T06:50:33;92484.75;;;14.92;31.39
11682;BME280;5897;42.640;23.310;2023-02-26T06:53:00;92472.97;;;15.12;31.35
11682;BME280;5897;42.640;23.310;2023-02-26T06:55:28;92441.28;;;15.09;31.35
11682;BME280;5897;42.640;23.310;2023-02-26T06:57:56;92496.97;;;15.13;31.50
11682;BME280;5897;42.640;23.310;2023-02-26T07:00:24;92466.81;;;15.17;31.52
11682;BME280;5897;42.640;23.310;2023-02-26T07:02:52;92504.13;;;15.16;31.50
11682;BME280;5897;42.640;23.310;2023-02-26T07:05:18;92484.13;;;15.25;31.16
11682;BME280;5897;42.640;23.310;2023-02-26T07:07:45;92443.59;;;15.27;30.93
11682;BME280;5897;42.640;23.310;2023-02-26T07:10:12;92477.97;;;15.30;31.29
11682;BME280;5897;42.640;23.310;2023-02-26T07:12:40;92520.72;;;15.24;31.54
11682;BME280;5897;42.640;23.310;2023-02-26T07:15:07;92451.44;;;15.14;31.89
11682;BME280;5897;42.640;23.310;2023-02-26T07:17:34;92439.88;;;15.30;31.41
11682;BME280;5897;42.640;23.310;2023-02-26T07:20:01;92539.84;;;15.35;31.43
11682;BME280;5897;42.640;23.310;2023-02-26T07:22:35;92454.25;;;15.36;31.23
11682;BME280;5897;42.640;23.310;2023-02-26T07:25:02;92417.44;;;15.46;30.98
11682;BME280;5897;42.640;23.310;2023-02-26T07:27:29;92470.63;;;15.52;30.88
11682;BME280;5897;42.640;23.310;2023-02-26T07:29:59;92515.91;;;15.61;30.86
11682;BME280;5897;42.640;23.310;2023-02-26T07:32:26;92366.72;;;15.59;30.50
11682;BME280;5897;42.640;23.310;2023-02-26T07:34:53;92494.91;;;15.56;30.32
11682;BME280;5897;42.640;23.310;2023-02-26T07:37:19;92462.75;;;15.65;30.28
11682;BME280;5897;42.640;23.310;2023-02-26T07:39:46;92468.44;;;15.73;30.47
11682;BME280;5897;42.640;23.310;2023-02-26T07:42:13;92468.94;;;15.99;29.88
11682;BME280;5897;42.640;23.310;2023-02-26T07:44:40;92581.59;;;15.90;29.50
11682;BME280;5897;42.640;23.310;2023-02-26T07:47:08;92416.44;;;15.93;29.60
11682;BME280;5897;42.640;23.310;2023-02-26T07:49:36;92431.81;;;15.96;29.60
11682;BME280;5897;42.640;23.310;2023-02-26T07:52:03;92441.97;;;16.06;29.53
11682;BME280;5897;42.640;23.310;2023-02-26T07:54:31;92501.88;;;16.06;29.10
11682;BME280;5897;42.640;23.310;2023-02-26T07:56:58;92420.41;;;16.14;28.96
11682;BME280;5897;42.640;23.310;2023-02-26T07:59:25;92454.84;;;16.22;29.12
11682;BME280;5897;42.640;23.310;2023-02-26T08:01:52;92435.28;;;16.13;28.88
11682;BME280;5897;42.640;23.310;2023-02-26T08:04:20;92469.94;;;16.34;28.83
11682;BME280;5897;42.640;23.310;2023-02-26T08:06:47;92480.84;;;16.40;28.48
11682;BME280;5897;42.640;23.310;2023-02-26T08:09:14;92424.13;;;16.16;28.66
11682;BME280;5897;42.640;23.310;2023-02-26T08:11:41;92560.59;;;16.18;29.03
11682;BME280;5897;42.640;23.310;2023-02-26T08:14:09;92455.81;;;16.08;29.21
11682;BME280;5897;42.640;23.310;2023-02-26T08:16:36;92467.72;;;16.16;28.72
11682;BME280;5897;42.640;23.310;2023-02-26T08:19:03;92519.47;;;16.22;28.82
11682;BME280;5897;42.640;23.310;2023-02-26T08:21:31;92557.34;;;16.14;28.80
11682;BME280;5897;42.640;23.310;2023-02-26T08:23:58;92492.97;;;16.11;28.80
11682;BME280;5897;42.640;23.310;2023-02-26T08:26:25;92505.09;;;16.16;28.64
11682;BME280;5897;42.640;23.310;2023-02-26T08:28:52;92502.63;;;16.23;28.90
11682;BME280;5897;42.640;23.310;2023-02-26T08:31:19;92462.25;;;16.22;28.77
11682;BME280;5897;42.640;23.310;2023-02-26T08:33:46;92615.09;;;16.24;28.29
11682;BME280;5897;42.640;23.310;2023-02-26T08:36:13;92509.06;;;16.20;28.38
11682;BME280;5897;42.640;23.310;2023-02-26T08:38:48;92513.03;;;16.25;28.59
11682;BME280;5897;42.640;23.310;2023-02-26T08:41:15;92553.66;;;16.23;28.57
11682;BME280;5897;42.640;23.310;2023-02-26T08:43:42;92481.81;;;16.31;28.50
11682;BME280;5897;42.640;23.310;2023-02-26T08:46:09;92542.31;;;16.41;28.22
11682;BME280;5897;42.640;23.310;2023-02-26T08:48:36;92517.25;;;16.37;28.12
11682;BME280;5897;42.640;23.310;2023-02-26T08:51:03;92533.09;;;16.27;27.58
11682;BME280;5897;42.640;23.310;2023-02-26T08:53:30;92735.53;;;16.33;28.05
11682;BME280;5897;42.640;23.310;2023-02-26T08:55:58;92518.00;;;16.43;27.76
11682;BME280;5897;42.640;23.310;2023-02-26T08:58:25;92484.06;;;16.49;27.43
11682;BME280;5897;42.640;23.310;2023-02-26T09:00:52;92578.47;;;16.47;27.78
11682;BME280;5897;42.640;23.310;2023-02-26T09:03:19;92493.44;;;16.59;27.78
11682;BME280;5897;42.640;23.310;2023-02-26T09:05:46;92452.31;;;16.52;27.36
11682;BME280;5897;42.640;23.310;2023-02-26T09:08:13;92515.00;;;16.63;27.62
11682;BME280;5897;42.640;23.310;2023-02-26T09:10:41;92560.59;;;16.79;27.17
11682;BME280;5897;42.640;23.310;2023-02-26T09:13:09;92506.56;;;16.83;27.06
11682;BME280;5897;42.640;23.310;2023-02-26T09:15:36;92525.09;;;17.01;26.47
11682;BME280;5897;42.640;23.310;2023-02-26T09:18:03;92534.47;;;17.16;26.44
11682;BME280;5897;42.640;23.310;2023-02-26T09:20:30;92495.22;;;17.36;26.08
11682;BME280;5897;42.640;23.310;2023-02-26T09:22:57;92551.28;;;17.48;26.00
11682;BME280;5897;42.640;23.310;2023-02-26T09:25:24;92537.13;;;17.55;26.13
11682;BME280;5897;42.640;23.310;2023-02-26T09:27:51;92516.00;;;17.55;25.70
11682;BME280;5897;42.640;23.310;2023-02-26T09:30:19;92510.47;;;17.72;25.14
11682;BME280;5897;42.640;23.310;2023-02-26T09:32:46;92517.06;;;17.87;25.11
11682;BME280;5897;42.640;23.310;2023-02-26T09:35:13;92531.22;;;17.86;25.17
11682;BME280;5897;42.640;23.310;2023-02-26T09:37:40;92528.72;;;17.93;25.17
11682;BME280;5897;42.640;23.310;2023-02-26T09:40:19;92509.22;;;18.08;25.08
11682;BME280;5897;42.640;23.310;2023-02-26T09:42:59;92531.91;;;18.38;24.88
11682;BME280;5897;42.640;23.310;2023-02-26T09:45:33;92554.88;;;18.88;24.06
11682;BME280;5897;42.640;23.310;2023-02-26T09:48:03;92639.44;;;18.57;23.98
11682;BME280;5897;42.640;23.310;2023-02-26T09:50:37;92520.44;;;18.04;24.83
11682;BME280;5897;42.640;23.310;2023-02-26T09:53:13;92524.94;;;18.02;24.79
11682;BME280;5897;42.640;23.310;2023-02-26T09:55:44;92510.91;;;18.16;24.98
11682;BME280;5897;42.640;23.310;2023-02-26T09:58:16;92563.38;;;18.50;24.75
11682;BME280;5897;42.640;23.310;2023-02-26T10:00:52;92580.72;;;18.17;25.13
11682;BME280;5897;42.640;23.310;2023-02-26T10:03:29;92511.28;;;18.02;25.65
11682;BME280;5897;42.640;23.310;2023-02-26T10:06:14;92533.84;;;18.08;25.82
11682;BME280;5897;42.640;23.310;2023-02-26T10:08:49;92497.31;;;18.05;26.06
11682;BME280;5897;42.640;23.310;2023-02-26T10:11:25;92502.38;;;18.25;25.58
11682;BME280;5897;42.640;23.310;2023-02-26T10:13:59;92514.94;;;18.10;26.04
11682;BME280;5897;42.640;23.310;2023-02-26T10:16:32;92542.66;;;18.25;25.11
11682;BME280;5897;42.640;23.310;2023-02-26T10:19:04;92528.13;;;18.06;25.90
11682;BME280;5897;42.640;23.310;2023-02-26T10:21:36;92544.34;;;17.98;26.33
11682;BME280;5897;42.640;23.310;2023-02-26T10:24:09;92598.53;;;17.83;26.06
11682;BME280;5897;42.640;23.310;2023-02-26T10:26:41;92521.19;;;17.59;26.46
11682;BME280;5897;42.640;23.310;2023-02-26T10:29:16;92608.06;;;17.66;26.49
11682;BME280;5897;42.640;23.310;2023-02-26T10:31:58;92504.53;;;17.62;26.33
11682;BME280;5897;42.640;23.310;2023-02-26T10:34:28;92554.03;;;17.42;26.33
11682;BME280;5897;42.640;23.310;2023-02-26T10:37:02;92480.34;;;17.26;27.24
11682;BME280;5897;42.640;23.310;2023-02-26T10:39:33;92490.34;;;17.12;27.77
11682;BME280;5897;42.640;23.310;2023-02-26T10:42:11;92473.50;;;17.08;27.25
11682;BME280;5897;42.640;23.310;2023-02-26T10:44:43;92488.38;;;17.07;27.76
11682;BME280;5897;42.640;23.310;2023-02-26T10:47:19;92474.47;;;17.11;27.86
11682;BME280;5897;42.640;23.310;2023-02-26T10:49:53;92442.03;;;16.96;27.83
11682;BME280;5897;42.640;23.310;2023-02-26T10:52:23;92449.97;;;17.00;27.68
11682;BME280;5897;42.640;23.310;2023-02-26T10:55:25;92450.63;;;17.17;27.77
11682;BME280;5897;42.640;23.310;2023-02-26T10:57:59;92498.53;;;17.07;28.05
11682;BME280;5897;42.640;23.310;2023-02-26T11:00:28;92470.53;;;17.06;28.45
11682;BME280;5897;42.640;23.310;2023-02-26T11:02:57;92464.41;;;16.89;29.00
11682;BME280;5897;42.640;23.310;2023-02-26T11:05:29;92464.16;;;16.82;28.85
11682;BME280;5897;42.640;23.310;2023-02-26T11:07:58;92483.25;;;16.82;29.12
11682;BME280;5897;42.640;23.310;2023-02-26T11:10:36;92485.03;;;16.68;28.89
11682;BME280;5897;42.640;23.310;2023-02-26T11:13:04;92484.75;;;16.83;29.12
11682;BME280;5897;42.640;23.310;2023-02-26T11:15:31;92466.38;;;16.89;28.49
11682;BME280;5897;42.640;23.310;2023-02-26T11:18:00;92484.47;;;16.86;28.59
11682;BME280;5897;42.640;23.310;2023-02-26T11:20:34;92447.06;;;16.76;28.86
11682;BME280;5897;42.640;23.310;2023-02-26T11:23:05;92437.97;;;16.51;29.37
11682;BME280;5897;42.640;23.310;2023-02-26T11:25:33;92459.28;;;16.53;30.06
11682;BME280;5897;42.640;23.310;2023-02-26T11:28:03;92437.22;;;16.51;29.95
11682;BME280;5897;42.640;23.310;2023-02-26T11:30:34;92441.19;;;16.50;30.37
11682;BME280;5897;42.640;23.310;2023-02-26T11:33:12;92465.19;;;16.57;30.34
11682;BME280;5897;42.640;23.310;2023-02-26T11:35:41;92444.38;;;16.59;30.42
11682;BME280;5897;42.640;23.310;2023-02-26T11:38:15;92507.34;;;16.56;30.72
11682;BME280;5897;42.640;23.310;2023-02-26T11:40:46;92508.09;;;16.51;30.88
11682;BME280;5897;42.640;23.310;2023-02-26T11:43:15;92446.88;;;16.52;31.56
11682;BME280;5897;42.640;23.310;2023-02-26T11:45:47;92463.50;;;16.54;31.53
11682;BME280;5897;42.640;23.310;2023-02-26T11:48:19;92495.97;;;16.41;31.93
11682;BME280;5897;42.640;23.310;2023-02-26T11:50:52;92453.31;;;16.38;32.01
11682;BME280;5897;42.640;23.310;2023-02-26T11:53:24;92523.94;;;16.25;32.75
11682;BME280;5897;42.640;23.310;2023-02-26T11:55:58;92562.56;;;16.29;32.82
11682;BME280;5897;42.640;23.310;2023-02-26T11:58:27;92545.97;;;16.16;33.65
11682;BME280;5897;42.640;23.310;2023-02-26T12:00:57;92483.31;;;16.16;34.56
11682;BME280;5897;42.640;23.310;2023-02-26T12:03:31;92516.25;;;16.34;34.98
11682;BME280;5897;42.640;23.310;2023-02-26T12:05:59;92503.13;;;16.27;35.84
11682;BME280;5897;42.640;23.310;2023-02-26T12:08:29;92602.22;;;16.30;35.36
11682;BME280;5897;42.640;23.310;2023-02-26T12:11:10;92515.50;;;16.17;35.56
11682;BME280;5897;42.640;23.310;2023-02-26T12:13:54;92527.66;;;16.05;35.52
11682;BME280;5897;42.640;23.310;2023-02-26T12:16:30;92536.56;;;16.11;34.60
11682;BME280;5897;42.640;23.310;2023-02-26T12:19:05;92525.91;;;16.13;34.68
11682;BME280;5897;42.640;23.310;2023-02-26T12:21:59;92514.50;;;15.93;37.40
11682;BME280;5897;42.640;23.310;2023-02-26T12:24:40;92525.16;;;16.02;36.72
11682;BME280;5897;42.640;23.310;2023-02-26T12:27:18;92545.69;;;15.92;37.99
11682;BME280;5897;42.640;23.310;2023-02-26T12:29:53;92617.06;;;16.07;38.05
11682;BME280;5897;42.640;23.310;2023-02-26T12:32:38;92568.00;;;15.96;37.95
11682;BME280;5897;42.640;23.310;2023-02-26T12:35:36;92547.19;;;15.98;38.47
11682;BME280;5897;42.640;23.310;2023-02-26T12:38:19;92591.53;;;16.26;37.57
11682;BME280;5897;42.640;23.310;2023-02-26T12:43:45;92584.41;;;16.84;36.84
11682;BME280;5897;42.640;23.310;2023-02-26T12:46:40;92617.13;;;16.62;37.27
11682;BME280;5897;42.640;23.310;2023-02-26T12:55:17;92606.16;;;17.22;34.54
11682;BME280;5897;42.640;23.310;2023-02-26T13:01:09;92602.16;;;17.34;34.23
11682;BME280;5897;42.640;23.310;2023-02-26T13:04:02;92616.06;;;17.42;34.38
11682;BME280;5897;42.640;23.310;2023-02-26T13:06:56;92631.44;;;17.28;35.11
11682;BME280;5897;42.640;23.310;2023-02-26T13:09:32;92626.56;;;16.72;36.81
11682;BME280;5897;42.640;23.310;2023-02-26T13:12:12;92618.38;;;16.72;37.21
11682;BME280;5897;42.640;23.310;2023-02-26T13:14:49;92642.19;;;16.88;37.01
11682;BME280;5897;42.640;23.310;2023-02-26T13:17:25;92623.59;;;16.81;37.28
11682;BME280;5897;42.640;23.310;2023-02-26T13:19:55;92649.59;;;16.76;37.50
11682;BME280;5897;42.640;23.310;2023-02-26T13:22:28;92630.28;;;16.74;37.69
11682;BME280;5897;42.640;23.310;2023-02-26T13:25:00;92621.09;;;16.94;37.63
11682;BME280;5897;42.640;23.310;2023-02-26T13:27:33;92634.00;;;16.82;36.53
11682;BME280;5897;42.640;23.310;2023-02-26T13:30:23;92625.56;;;17.02;37.00
11682;BME280;5897;42.640;23.310;2023-02-26T13:32:54;92661.25;;;17.32;35.67
11682;BME280;5897;42.640;23.310;2023-02-26T13:35:26;92590.28;;;17.32;35.49
11682;BME280;5897;42.640;23.310;2023-02-26T13:37:56;92592.09;;;17.81;34.81
11682;BME280;5897;42.640;23.310;2023-02-26T13:40:38;92587.78;;;17.96;34.17